createdAt,value
2023-01-26T00:01:20.530Z,4.10
2023-01-26T00:03:50.633Z,4.10
2023-01-26T00:06:20.130Z,4.10
2023-01-26T00:08:50.198Z,4.10
2023-01-26T00:11:20.375Z,4.10
2023-01-26T00:13:51.760Z,4.10
2023-01-26T00:16:20.756Z,4.10
2023-01-26T00:18:50.413Z,4.10
2023-01-26T00:21:20.437Z,4.20
2023-01-26T00:23:49.036Z,4.20
2023-01-26T00:26:18.723Z,4.20
2023-01-26T00:28:46.905Z,4.20
2023-01-26T00:31:16.739Z,4.20
2023-01-26T00:33:45.288Z,4.20
2023-01-26T00:36:15.325Z,4.10
2023-01-26T00:38:44.288Z,4.20
2023-01-26T00:41:29.675Z,4.20
2023-01-26T00:44:01.355Z,4.20
2023-01-26T00:46:29.581Z,4.50
2023-01-26T00:48:57.856Z,4.20
2023-01-26T00:51:27.391Z,4.30
2023-01-26T00:53:55.733Z,4.20
2023-01-26T00:56:23.849Z,4.20
2023-01-26T00:58:52.008Z,4.20
2023-01-26T01:01:20.060Z,4.20
2023-01-26T01:03:48.108Z,4.20
2023-01-26T01:06:16.344Z,4.10
2023-01-26T01:08:45.994Z,4.10
2023-01-26T01:11:14.151Z,4.10
2023-01-26T01:13:42.581Z,4.10
2023-01-26T01:16:12.978Z,4.10
2023-01-26T01:18:41.839Z,4.10
2023-01-26T01:21:12.537Z,4.10
2023-01-26T01:23:40.942Z,4.10
2023-01-26T01:26:12.067Z,4.10
2023-01-26T01:28:40.522Z,4.30
2023-01-26T01:31:09.938Z,4.20
2023-01-26T01:33:41.245Z,4.10
2023-01-26T01:36:13.240Z,4.10
2023-01-26T01:38:42.040Z,4.10
2023-01-26T01:41:17.618Z,4.10
2023-01-26T01:43:46.538Z,4.10
2023-01-26T01:46:27.763Z,4.10
2023-01-26T01:48:59.846Z,4.10
2023-01-26T01:51:35.133Z,4.10
2023-01-26T01:54:06.574Z,4.10
2023-01-26T01:56:38.965Z,4.10
2023-01-26T01:59:08.322Z,4.10
2023-01-26T02:01:36.697Z,4.10
2023-01-26T02:04:08.483Z,4.10
2023-01-26T02:06:47.249Z,4.10
2023-01-26T02:09:30.864Z,4.10
2023-01-26T02:12:01.011Z,4.10
2023-01-26T02:14:30.460Z,4.10
2023-01-26T02:16:58.678Z,4.30
2023-01-26T02:19:33.607Z,4.10
2023-01-26T02:22:08.747Z,4.10
2023-01-26T02:24:40.044Z,4.10
2023-01-26T02:27:09.758Z,4.10
2023-01-26T02:29:38.313Z,4.10
2023-01-26T02:32:06.747Z,4.10
2023-01-26T02:34:35.008Z,4.10
2023-01-26T02:37:03.170Z,4.10
2023-01-26T02:39:47.271Z,4.10
2023-01-26T02:42:36.048Z,4.50
2023-01-26T02:45:04.512Z,4.10
2023-01-26T02:47:32.715Z,4.10
2023-01-26T02:50:00.655Z,4.10
2023-01-26T02:52:31.942Z,4.10
2023-01-26T02:55:24.948Z,4.10
2023-01-26T02:57:56.432Z,4.10
2023-01-26T03:00:27.408Z,4.10
2023-01-26T03:02:58.063Z,4.10
2023-01-26T03:05:27.109Z,4.10
2023-01-26T03:07:56.964Z,4.10
2023-01-26T03:10:31.021Z,4.10
2023-01-26T03:13:00.840Z,4.20
2023-01-26T03:15:52.475Z,4.20
2023-01-26T03:18:41.721Z,4.20
2023-01-26T03:21:30.754Z,4.20
2023-01-26T03:24:16.976Z,4.20
2023-01-26T03:27:03.168Z,4.20
2023-01-26T03:29:35.659Z,4.20
2023-01-26T03:32:04.391Z,4.20
2023-01-26T03:34:33.091Z,4.20
2023-01-26T03:37:01.328Z,4.20
2023-01-26T03:39:54.499Z,4.20
2023-01-26T03:42:40.103Z,4.20
2023-01-26T03:45:28.454Z,4.20
2023-01-26T03:48:22.958Z,4.20
2023-01-26T03:51:08.737Z,4.10
2023-01-26T03:53:54.333Z,4.10
2023-01-26T03:56:23.074Z,4.10
2023-01-26T03:58:55.052Z,4.10
2023-01-26T04:01:28.678Z,4.10
2023-01-26T04:04:17.635Z,4.00
2023-01-26T04:07:07.237Z,4.00
2023-01-26T04:09:39.511Z,3.90
2023-01-26T04:12:10.243Z,4.00
2023-01-26T04:15:08.622Z,4.00
2023-01-26T04:17:55.924Z,4.00
2023-01-26T04:20:41.966Z,4.00
2023-01-26T04:23:18.974Z,4.00
2023-01-26T04:25:48.701Z,4.00
2023-01-26T04:28:17.139Z,4.00
2023-01-26T04:30:45.822Z,4.00
2023-01-26T04:33:15.412Z,3.90
2023-01-26T04:35:43.640Z,4.00
2023-01-26T04:38:12.047Z,4.00
2023-01-26T04:40:42.915Z,4.00
2023-01-26T04:43:11.082Z,4.00
2023-01-26T04:45:39.246Z,4.00
2023-01-26T04:48:08.614Z,3.90
2023-01-26T04:50:38.132Z,4.20
2023-01-26T04:53:06.679Z,3.90
2023-01-26T04:55:34.830Z,3.70
2023-01-26T04:58:03.951Z,4.00
2023-01-26T05:00:32.370Z,4.00
2023-01-26T05:03:01.778Z,4.00
2023-01-26T05:05:30.154Z,4.00
2023-01-26T05:08:02.111Z,4.10
2023-01-26T05:10:33.752Z,4.10
2023-01-26T05:13:26.461Z,4.10
2023-01-26T05:16:16.144Z,4.00
2023-01-26T05:18:58.471Z,4.10
2023-01-26T05:21:45.969Z,4.00
2023-01-26T05:24:22.440Z,4.00
2023-01-26T05:27:22.480Z,4.00
2023-01-26T05:30:00.360Z,4.00
2023-01-26T05:32:31.316Z,4.00
2023-01-26T05:35:01.366Z,4.00
2023-01-26T05:37:32.592Z,4.00
2023-01-26T05:40:04.033Z,4.00
2023-01-26T05:42:32.416Z,4.00
2023-01-26T05:45:03.267Z,4.00
2023-01-26T05:47:34.024Z,4.00
2023-01-26T05:50:02.309Z,4.00
2023-01-26T05:52:35.414Z,4.00
2023-01-26T05:55:27.842Z,4.00
2023-01-26T05:57:57.982Z,4.00
2023-01-26T06:00:32.057Z,4.00
2023-01-26T06:03:16.290Z,4.00
2023-01-26T06:05:53.450Z,4.00
2023-01-26T06:08:33.254Z,4.00
2023-01-26T06:11:37.806Z,4.00
2023-01-26T06:14:10.858Z,4.00
2023-01-26T06:16:44.047Z,4.00
2023-01-26T06:19:15.445Z,4.00
2023-01-26T06:21:50.713Z,4.10
2023-01-26T06:24:24.090Z,4.00
2023-01-26T06:27:12.595Z,4.10
2023-01-26T06:29:51.026Z,4.10
2023-01-26T06:32:21.507Z,4.10
2023-01-26T06:34:56.649Z,4.10
2023-01-26T06:37:29.587Z,4.10
2023-01-26T06:39:57.950Z,4.30
2023-01-26T06:42:27.596Z,4.10
2023-01-26T06:44:57.533Z,4.10
2023-01-26T06:47:26.470Z,4.10
2023-01-26T06:50:00.244Z,4.10
2023-01-26T06:52:32.498Z,4.10
2023-01-26T06:55:20.219Z,4.10
2023-01-26T06:57:56.312Z,4.20
2023-01-26T07:00:54.233Z,4.10
2023-01-26T07:03:34.614Z,4.10
2023-01-26T07:06:02.806Z,4.00
2023-01-26T07:08:31.442Z,4.00
2023-01-26T07:10:59.599Z,4.00
2023-01-26T07:13:29.349Z,4.00
2023-01-26T07:16:02.579Z,4.00
2023-01-26T07:18:31.414Z,4.00
2023-01-26T07:21:02.542Z,4.10
2023-01-26T07:23:30.880Z,4.10
2023-01-26T07:25:59.788Z,4.10
2023-01-26T07:28:30.565Z,4.10
2023-01-26T07:30:59.345Z,4.10
2023-01-26T07:33:27.893Z,4.10
2023-01-26T07:35:57.388Z,4.10
2023-01-26T07:38:26.268Z,4.10
2023-01-26T07:40:54.506Z,4.20
2023-01-26T07:43:23.104Z,4.20
2023-01-26T07:45:56.042Z,4.20
2023-01-26T07:48:25.466Z,4.20
2023-01-26T07:50:53.676Z,4.20
2023-01-26T07:53:23.057Z,4.20
2023-01-26T07:55:51.423Z,4.20
2023-01-26T07:58:19.606Z,4.10
2023-01-26T08:00:48.211Z,4.20
2023-01-26T08:03:17.802Z,4.10
2023-01-26T08:05:47.230Z,4.20
2023-01-26T08:08:15.776Z,4.20
2023-01-26T08:10:43.986Z,4.20
2023-01-26T08:13:12.167Z,4.20
2023-01-26T08:15:40.344Z,4.30
2023-01-26T08:18:08.845Z,4.10
2023-01-26T08:20:38.525Z,4.10
2023-01-26T08:23:06.708Z,4.20
2023-01-26T08:25:34.832Z,4.10
2023-01-26T08:28:03.472Z,4.10
2023-01-26T08:30:31.604Z,4.00
2023-01-26T08:32:59.812Z,4.00
2023-01-26T08:35:28.120Z,4.00
2023-01-26T08:37:57.763Z,4.00
2023-01-26T08:40:26.050Z,4.00
2023-01-26T08:42:54.787Z,4.00
2023-01-26T08:45:23.374Z,4.00
2023-01-26T08:47:52.177Z,4.10
2023-01-26T08:50:20.618Z,4.10
2023-01-26T08:52:49.358Z,4.10
2023-01-26T08:55:18.903Z,4.10
2023-01-26T08:57:47.566Z,4.00
2023-01-26T09:00:16.811Z,4.10
2023-01-26T09:02:45.117Z,4.10
2023-01-26T09:05:13.373Z,4.10
2023-01-26T09:07:41.634Z,4.00
2023-01-26T09:10:11.469Z,4.00
2023-01-26T09:12:41.364Z,4.00
2023-01-26T09:15:10.763Z,4.00
2023-01-26T09:17:39.072Z,4.00
2023-01-26T09:20:09.494Z,4.00
2023-01-26T09:22:37.827Z,4.00
2023-01-26T09:25:06.939Z,4.00
2023-01-26T09:27:35.293Z,4.00
2023-01-26T09:30:06.583Z,4.00
2023-01-26T09:32:34.901Z,4.00
2023-01-26T09:35:03.149Z,4.00
2023-01-26T09:37:33.740Z,3.90
2023-01-26T09:40:01.878Z,4.00
2023-01-26T09:42:43.745Z,4.00
2023-01-26T09:45:27.728Z,4.00
2023-01-26T09:48:18.100Z,4.00
2023-01-26T09:50:53.234Z,4.00
2023-01-26T09:53:26.956Z,4.00
2023-01-26T09:55:58.089Z,4.00
2023-01-26T09:58:35.649Z,4.10
2023-01-26T10:01:06.950Z,4.10
2023-01-26T10:03:42.391Z,4.10
2023-01-26T10:06:17.287Z,4.10
2023-01-26T10:09:26.937Z,4.20
2023-01-26T10:11:59.116Z,4.20
2023-01-26T10:14:35.547Z,4.20
2023-01-26T10:17:08.195Z,4.10
2023-01-26T10:19:41.038Z,4.20
2023-01-26T10:22:17.173Z,4.10
2023-01-26T10:24:50.261Z,4.10
2023-01-26T10:27:19.113Z,4.10
2023-01-26T10:29:47.328Z,4.50
2023-01-26T10:32:19.185Z,4.20
2023-01-26T10:34:49.514Z,4.10
2023-01-26T10:37:22.815Z,4.10
2023-01-26T10:40:02.447Z,4.10
2023-01-26T10:42:32.699Z,4.20
2023-01-26T10:45:02.720Z,4.10
2023-01-26T10:47:32.530Z,4.20
2023-01-26T10:50:20.444Z,4.20
2023-01-26T10:52:59.837Z,4.20
2023-01-26T10:55:29.360Z,4.20
2023-01-26T10:57:57.899Z,4.30
2023-01-26T11:00:29.169Z,4.30
2023-01-26T11:03:05.530Z,4.30
2023-01-26T11:05:33.827Z,4.10
2023-01-26T11:08:03.461Z,4.20
2023-01-26T11:10:33.767Z,4.20
2023-01-26T11:13:14.083Z,4.10
2023-01-26T11:15:44.197Z,4.20
2023-01-26T11:18:24.713Z,4.10
2023-01-26T11:20:58.623Z,3.90
2023-01-26T11:23:42.433Z,4.30
2023-01-26T11:26:34.367Z,4.10
2023-01-26T11:29:25.880Z,4.10
2023-01-26T11:32:04.322Z,4.10
2023-01-26T11:34:42.538Z,4.10
2023-01-26T11:37:36.449Z,4.10
2023-01-26T11:40:22.136Z,4.10
2023-01-26T11:42:59.686Z,4.10
2023-01-26T11:45:33.823Z,4.10
2023-01-26T11:48:17.049Z,4.10
2023-01-26T11:50:51.636Z,4.20
2023-01-26T11:53:43.326Z,4.10
2023-01-26T11:56:22.278Z,4.20
2023-01-26T11:58:55.973Z,4.30
2023-01-26T12:01:29.127Z,4.20
2023-01-26T12:03:58.833Z,4.20
2023-01-26T12:06:38.712Z,4.20
2023-01-26T12:09:18.612Z,4.20
2023-01-26T12:11:52.771Z,4.30
2023-01-26T12:14:27.427Z,4.20
2023-01-26T12:17:18.695Z,4.30
2023-01-26T12:19:53.968Z,4.20
2023-01-26T12:22:29.864Z,4.20
2023-01-26T12:25:18.891Z,4.20
2023-01-26T12:27:53.010Z,4.30
2023-01-26T12:30:31.827Z,4.30
2023-01-26T12:33:00.460Z,4.30
2023-01-26T12:35:38.128Z,4.30
2023-01-26T12:38:18.240Z,4.30
2023-01-26T12:40:59.065Z,4.30
2023-01-26T12:43:44.416Z,4.30
2023-01-26T12:46:14.149Z,4.30
2023-01-26T12:48:47.104Z,4.30
2023-01-26T12:51:20.539Z,4.30
2023-01-26T12:53:57.840Z,4.30
2023-01-26T12:56:32.629Z,4.40
2023-01-26T12:59:08.453Z,4.40
2023-01-26T13:01:42.426Z,4.10
2023-01-26T13:04:12.678Z,4.60
2023-01-26T13:06:41.551Z,4.30
2023-01-26T13:09:25.785Z,4.30
2023-01-26T13:11:55.570Z,4.30
2023-01-26T13:14:34.329Z,4.30
2023-01-26T13:17:49.820Z,4.30
2023-01-26T13:20:50.165Z,4.30
2023-01-26T13:23:52.654Z,4.40
2023-01-26T13:26:47.302Z,4.40
2023-01-26T13:29:36.426Z,4.40
2023-01-26T13:32:38.157Z,4.40
2023-01-26T13:35:13.094Z,4.40
2023-01-26T13:37:49.985Z,4.40
2023-01-26T13:40:22.273Z,4.40
2023-01-26T13:42:59.566Z,4.40
2023-01-26T13:45:33.576Z,4.40
2023-01-26T13:48:03.310Z,4.50
2023-01-26T13:50:33.515Z,4.50
2023-01-26T13:53:02.184Z,4.40
2023-01-26T13:55:33.061Z,4.60
2023-01-26T13:58:16.891Z,4.50
2023-01-26T14:00:59.563Z,4.50
2023-01-26T14:03:28.423Z,4.50
2023-01-26T14:05:59.599Z,4.60
2023-01-26T14:08:28.228Z,4.60
2023-01-26T14:10:57.057Z,4.60
2023-01-26T14:13:32.745Z,4.60
2023-01-26T14:16:02.703Z,4.70
2023-01-26T14:18:33.235Z,4.70
2023-01-26T14:21:04.027Z,4.70
2023-01-26T14:23:36.422Z,4.70
2023-01-26T14:26:06.853Z,4.80
2023-01-26T14:28:38.839Z,4.70
2023-01-26T14:31:15.049Z,4.80
2023-01-26T14:33:43.351Z,4.80
2023-01-26T14:36:16.928Z,4.80
2023-01-26T14:38:47.346Z,4.90
2023-01-26T14:41:19.550Z,4.80
2023-01-26T14:43:50.002Z,4.80
2023-01-26T14:46:22.804Z,4.80
2023-01-26T14:48:53.834Z,4.90
2023-01-26T14:51:24.511Z,4.90
2023-01-26T14:53:55.256Z,4.90
2023-01-26T14:56:31.712Z,4.90
2023-01-26T14:59:02.640Z,4.80
2023-01-26T15:01:31.791Z,4.90
2023-01-26T15:04:05.020Z,4.90
2023-01-26T15:06:34.769Z,4.90
2023-01-26T15:09:06.167Z,4.90
2023-01-26T15:11:54.170Z,4.90
2023-01-26T15:14:36.611Z,4.90
2023-01-26T15:17:05.829Z,4.90
2023-01-26T15:19:41.759Z,4.90
2023-01-26T15:22:22.046Z,4.90
2023-01-26T15:25:01.904Z,5.00
2023-01-26T15:27:35.159Z,5.00
2023-01-26T15:30:07.943Z,5.00
2023-01-26T15:32:40.925Z,5.00
2023-01-26T15:35:26.350Z,5.10
2023-01-26T15:38:02.754Z,5.10
2023-01-26T15:40:31.832Z,5.10
2023-01-26T15:43:13.365Z,5.20
2023-01-26T15:45:49.323Z,5.20
2023-01-26T15:48:17.575Z,5.20
2023-01-26T15:50:47.305Z,5.30
2023-01-26T15:53:16.484Z,5.30
2023-01-26T15:55:46.029Z,5.40
2023-01-26T15:58:14.291Z,5.40
2023-01-26T16:00:44.037Z,5.30
2023-01-26T16:03:16.208Z,5.40
2023-01-26T16:05:47.718Z,5.40
2023-01-26T16:08:16.647Z,5.40
2023-01-26T16:10:45.538Z,5.40
2023-01-26T16:13:17.649Z,5.40
2023-01-26T16:15:49.903Z,5.40
2023-01-26T16:18:18.703Z,5.50
2023-01-26T16:20:49.274Z,5.50
2023-01-26T16:23:20.637Z,5.50
2023-01-26T16:25:49.599Z,5.50
2023-01-26T16:28:18.255Z,5.50
2023-01-26T16:30:50.895Z,5.50
2023-01-26T16:33:21.240Z,5.50
2023-01-26T16:35:49.750Z,5.50
2023-01-26T16:38:17.998Z,5.50
2023-01-26T16:40:48.829Z,5.50
2023-01-26T16:43:21.400Z,5.50
2023-01-26T16:45:52.432Z,5.60
2023-01-26T16:48:21.424Z,5.60
2023-01-26T16:50:52.966Z,5.50
2023-01-26T16:53:26.527Z,5.50
2023-01-26T16:55:55.228Z,5.30
2023-01-26T16:58:26.299Z,5.50
2023-01-26T17:00:56.575Z,5.50
2023-01-26T17:03:25.335Z,5.50
2023-01-26T17:05:53.581Z,5.50
2023-01-26T17:08:21.765Z,5.50
2023-01-26T17:11:01.717Z,5.60
2023-01-26T17:13:31.511Z,5.60
2023-01-26T17:16:01.338Z,5.60
2023-01-26T17:18:29.664Z,5.60
2023-01-26T17:21:03.857Z,5.60
2023-01-26T17:23:32.378Z,5.60
2023-01-26T17:26:00.880Z,5.60
2023-01-26T17:28:29.521Z,5.60
2023-01-26T17:31:00.798Z,5.60
2023-01-26T17:33:31.262Z,5.70
2023-01-26T17:36:01.244Z,5.70
2023-01-26T17:38:29.538Z,5.70
2023-01-26T17:40:58.316Z,5.70
2023-01-26T17:43:26.951Z,5.80
2023-01-26T17:46:04.013Z,5.70
2023-01-26T17:48:34.231Z,5.70
2023-01-26T17:51:05.350Z,5.70
2023-01-26T17:53:33.601Z,5.80
2023-01-26T17:56:01.829Z,5.80
2023-01-26T17:58:30.059Z,5.80
2023-01-26T18:00:58.401Z,5.90
2023-01-26T18:03:27.460Z,5.80
2023-01-26T18:05:58.401Z,5.80
2023-01-26T18:08:27.428Z,5.80
2023-01-26T18:11:00.012Z,5.80
2023-01-26T18:13:29.042Z,5.80
2023-01-26T18:15:57.337Z,5.80
2023-01-26T18:18:26.724Z,5.80
2023-01-26T18:20:56.677Z,5.80
2023-01-26T18:23:25.658Z,5.80
2023-01-26T18:25:53.807Z,5.80
2023-01-26T18:28:22.018Z,5.80
2023-01-26T18:30:50.218Z,5.80
2023-01-26T18:33:18.487Z,5.90
2023-01-26T18:35:46.952Z,5.80
2023-01-26T18:38:16.617Z,5.90
2023-01-26T18:40:44.915Z,5.90
2023-01-26T18:43:13.231Z,5.90
2023-01-26T18:45:43.119Z,5.90
2023-01-26T18:48:11.564Z,5.50
2023-01-26T18:50:40.045Z,5.80
2023-01-26T18:53:08.638Z,5.90
2023-01-26T18:55:38.803Z,5.90
2023-01-26T18:58:07.134Z,5.90
2023-01-26T19:00:36.386Z,5.90
2023-01-26T19:03:05.279Z,5.90
2023-01-26T19:05:33.639Z,5.90
2023-01-26T19:08:10.108Z,5.90
2023-01-26T19:10:40.397Z,5.90
2023-01-26T19:13:09.526Z,5.90
2023-01-26T19:15:37.808Z,5.90
2023-01-26T19:18:06.256Z,5.90
2023-01-26T19:20:34.567Z,6.00
2023-01-26T19:23:03.951Z,6.00
2023-01-26T19:25:32.771Z,6.00
2023-01-26T19:28:02.595Z,6.00
2023-01-26T19:30:31.316Z,5.90
2023-01-26T19:33:16.846Z,6.00
2023-01-26T19:35:45.450Z,6.00
2023-01-26T19:38:13.696Z,6.00
2023-01-26T19:40:42.181Z,6.00
2023-01-26T19:43:12.495Z,6.00
2023-01-26T19:45:40.813Z,6.00
2023-01-26T19:48:09.230Z,6.00
2023-01-26T19:50:37.947Z,6.00
2023-01-26T19:53:07.719Z,6.20
2023-01-26T19:55:36.088Z,6.10
2023-01-26T19:58:04.504Z,6.00
2023-01-26T20:00:34.470Z,6.00
2023-01-26T20:03:02.711Z,6.10
2023-01-26T20:05:31.024Z,6.10
2023-01-26T20:07:59.225Z,6.30
2023-01-26T20:10:27.463Z,6.10
2023-01-26T20:12:57.368Z,6.10
2023-01-26T20:15:25.937Z,6.10
2023-01-26T20:17:55.719Z,6.10
2023-01-26T20:20:24.501Z,6.10
2023-01-26T20:22:52.855Z,6.10
2023-01-26T20:25:21.254Z,6.10
2023-01-26T20:27:49.468Z,6.20
2023-01-26T20:30:24.016Z,6.20
2023-01-26T20:33:04.302Z,6.10
2023-01-26T20:35:33.369Z,6.10
2023-01-26T20:38:12.156Z,6.20
2023-01-26T20:40:51.402Z,6.20
2023-01-26T20:43:22.913Z,6.10
2023-01-26T20:45:55.889Z,6.30
2023-01-26T20:48:36.982Z,6.20
2023-01-26T20:51:16.982Z,6.20
2023-01-26T20:53:52.329Z,6.20
2023-01-26T20:56:23.180Z,6.20
2023-01-26T20:58:55.728Z,6.20
2023-01-26T21:01:34.803Z,6.20
2023-01-26T21:04:08.976Z,6.20
2023-01-26T21:06:39.429Z,6.20
2023-01-26T21:09:13.071Z,6.20
2023-01-26T21:11:41.874Z,6.20
2023-01-26T21:14:12.994Z,6.30
2023-01-26T21:16:41.586Z,6.30
2023-01-26T21:19:11.281Z,6.30
2023-01-26T21:21:39.499Z,6.30
2023-01-26T21:24:08.572Z,6.00
2023-01-26T21:26:36.945Z,6.30
2023-01-26T21:29:06.248Z,6.60
2023-01-26T21:31:35.117Z,6.30
2023-01-26T21:34:03.485Z,6.30
2023-01-26T21:36:34.208Z,6.30
2023-01-26T21:39:02.689Z,6.30
2023-01-26T21:41:49.571Z,6.30
2023-01-26T21:44:19.383Z,6.30
2023-01-26T21:46:49.747Z,6.30
2023-01-26T21:49:18.644Z,6.30
2023-01-26T21:52:05.884Z,6.30
2023-01-26T21:54:35.008Z,6.30
2023-01-26T21:57:25.123Z,6.30
2023-01-26T21:59:52.679Z,6.20
2023-01-26T22:02:21.076Z,6.20
2023-01-26T22:04:49.299Z,6.20
2023-01-26T22:07:18.813Z,6.20
2023-01-26T22:09:47.394Z,6.20
2023-01-26T22:12:16.484Z,6.20
2023-01-26T22:14:45.126Z,6.20
2023-01-26T22:17:13.390Z,6.30
2023-01-26T22:19:41.628Z,6.30
2023-01-26T22:22:09.931Z,6.30
2023-01-26T22:24:39.489Z,6.30
2023-01-26T22:27:08.287Z,6.30
2023-01-26T22:29:36.724Z,6.30
2023-01-26T22:32:05.211Z,6.30
2023-01-26T22:34:33.461Z,6.30
2023-01-26T22:37:01.671Z,6.30
2023-01-26T22:39:29.824Z,6.30
2023-01-26T22:41:59.552Z,6.30
2023-01-26T22:44:28.124Z,6.30
2023-01-26T22:46:56.274Z,6.30
2023-01-26T22:49:24.491Z,6.30
2023-01-26T22:51:52.767Z,6.40
2023-01-26T22:54:21.039Z,6.40
2023-01-26T22:56:49.482Z,6.40
2023-01-26T22:59:19.083Z,6.40
2023-01-26T23:01:47.474Z,6.40
2023-01-26T23:04:16.311Z,6.40
2023-01-26T23:06:44.558Z,6.40
2023-01-26T23:09:14.003Z,6.40
2023-01-26T23:11:42.231Z,6.40
2023-01-26T23:14:10.464Z,6.40
2023-01-26T23:16:40.113Z,6.40
2023-01-26T23:19:08.515Z,6.50
2023-01-26T23:21:36.804Z,6.40
2023-01-26T23:24:05.264Z,6.40
2023-01-26T23:26:33.655Z,6.40
2023-01-26T23:29:01.834Z,6.40
2023-01-26T23:31:31.900Z,6.40
2023-01-26T23:34:02.823Z,6.40
2023-01-26T23:36:31.097Z,6.40
2023-01-26T23:38:59.376Z,6.40
2023-01-26T23:41:27.891Z,6.40
2023-01-26T23:43:56.206Z,6.40
2023-01-26T23:46:24.376Z,6.40
2023-01-26T23:48:52.558Z,6.40
2023-01-26T23:51:22.089Z,6.40
2023-01-26T23:53:50.442Z,6.40
2023-01-26T23:56:19.245Z,6.40
2023-01-26T23:58:47.347Z,6.40
